sensor_id;sensor_type;location;lat;lon;timestamp;pressure;altitude;pressure_sealevel;temperature;humidity
65054;BME280;51639;47.828;35.038;2023-04-08T00:00:47;100364.75;;;11.38;100.00
65054;BME280;51639;47.828;35.038;2023-04-08T00:15:51;100362.66;;;11.25;100.00
65054;BME280;51639;47.828;35.038;2023-04-08T00:30:53;100355.09;;;11.13;100.00
65054;BME280;51639;47.828;35.038;2023-04-08T00:45:55;100352.47;;;11.10;100.00
65054;BME280;51639;47.828;35.038;2023-04-08T01:01:06;100360.75;;;11.22;100.00
65054;BME280;51639;47.828;35.038;2023-04-08T01:16:13;100378.84;;;11.33;100.00
65054;BME280;51639;47.828;35.038;2023-04-08T01:31:16;100383.16;;;11.07;100.00
65054;BME280;51639;47.828;35.038;2023-04-08T01:46:19;100380.63;;;10.96;100.00
65054;BME280;51639;47.828;35.038;2023-04-08T02:01:24;100393.75;;;11.01;100.00
65054;BME280;51639;47.828;35.038;2023-04-08T02:16:29;100388.06;;;10.92;100.00
65054;BME280;51639;47.828;35.038;2023-04-08T02:31:32;100376.38;;;10.95;100.00
65054;BME280;51639;47.828;35.038;2023-04-08T02:46:35;100391.59;;;10.89;100.00
65054;BME280;51639;47.828;35.038;2023-04-08T03:01:37;100388.88;;;10.89;100.00
65054;BME280;51639;47.828;35.038;2023-04-08T03:16:39;100404.41;;;10.88;100.00
65054;BME280;51639;47.828;35.038;2023-04-08T03:31:41;100400.34;;;11.00;100.00
65054;BME280;51639;47.828;35.038;2023-04-08T03:46:43;100411.28;;;10.97;100.00
65054;BME280;51639;47.828;35.038;2023-04-08T04:01:45;100418.53;;;11.26;100.00
65054;BME280;51639;47.828;35.038;2023-04-08T04:16:48;100433.56;;;11.54;100.00
65054;BME280;51639;47.828;35.038;2023-04-08T04:31:49;100433.13;;;11.79;100.00
65054;BME280;51639;47.828;35.038;2023-04-08T04:46:52;100466.59;;;12.52;100.00
65054;BME280;51639;47.828;35.038;2023-04-08T05:01:54;100482.09;;;13.23;100.00
65054;BME280;51639;47.828;35.038;2023-04-08T05:16:58;100491.25;;;14.20;100.00
65054;BME280;51639;47.828;35.038;2023-04-08T05:32:00;100483.22;;;15.30;100.00
65054;BME280;51639;47.828;35.038;2023-04-08T05:47:02;100499.38;;;16.07;100.00
65054;BME280;51639;47.828;35.038;2023-04-08T06:02:04;100505.50;;;16.11;100.00
65054;BME280;51639;47.828;35.038;2023-04-08T06:17:06;100509.66;;;17.08;100.00
65054;BME280;51639;47.828;35.038;2023-04-08T06:32:08;100517.56;;;17.64;100.00
65054;BME280;51639;47.828;35.038;2023-04-08T06:47:11;100513.09;;;18.22;100.00
65054;BME280;51639;47.828;35.038;2023-04-08T07:02:13;100510.75;;;19.56;100.00
65054;BME280;51639;47.828;35.038;2023-04-08T07:17:15;100521.09;;;19.13;100.00
65054;BME280;51639;47.828;35.038;2023-04-08T07:32:16;100533.97;;;18.56;100.00
65054;BME280;51639;47.828;35.038;2023-04-08T07:47:19;100548.84;;;18.03;100.00
65054;BME280;51639;47.828;35.038;2023-04-08T08:02:21;100542.38;;;17.52;100.00
65054;BME280;51639;47.828;35.038;2023-04-08T08:17:24;100547.63;;;18.14;100.00
65054;BME280;51639;47.828;35.038;2023-04-08T08:32:28;100565.13;;;18.53;100.00
65054;BME280;51639;47.828;35.038;2023-04-08T08:47:31;100542.69;;;20.16;100.00
65054;BME280;51639;47.828;35.038;2023-04-08T09:02:33;100552.03;;;20.62;100.00
65054;BME280;51639;47.828;35.038;2023-04-08T09:17:39;100561.09;;;20.77;100.00
65054;BME280;51639;47.828;35.038;2023-04-08T09:32:55;100544.00;;;21.43;100.00
65054;BME280;51639;47.828;35.038;2023-04-08T09:48:17;100547.53;;;21.44;100.00
65054;BME280;51639;47.828;35.038;2023-04-08T10:03:47;100554.66;;;24.08;100.00
65054;BME280;51639;47.828;35.038;2023-04-08T10:18:50;100565.34;;;24.54;100.00
65054;BME280;51639;47.828;35.038;2023-04-08T10:34:23;100550.16;;;25.05;100.00
65054;BME280;51639;47.828;35.038;2023-04-08T10:49:33;100537.94;;;25.47;100.00
65054;BME280;51639;47.828;35.038;2023-04-08T11:04:40;100545.03;;;25.32;100.00
65054;BME280;51639;47.828;35.038;2023-04-08T11:19:43;100532.09;;;22.24;100.00
65054;BME280;51639;47.828;35.038;2023-04-08T11:34:46;100531.22;;;20.61;100.00
65054;BME280;51639;47.828;35.038;2023-04-08T11:49:48;100540.44;;;19.52;100.00
65054;BME280;51639;47.828;35.038;2023-04-08T12:04:50;100525.19;;;18.85;100.00
65054;BME280;51639;47.828;35.038;2023-04-08T12:19:53;100543.59;;;19.35;100.00
65054;BME280;51639;47.828;35.038;2023-04-08T12:34:55;100540.00;;;19.44;100.00
65054;BME280;51639;47.828;35.038;2023-04-08T12:49:57;100519.50;;;19.21;100.00
65054;BME280;51639;47.828;35.038;2023-04-08T13:04:59;100521.75;;;18.99;100.00
65054;BME280;51639;47.828;35.038;2023-04-08T13:20:01;100510.41;;;18.73;100.00
65054;BME280;51639;47.828;35.038;2023-04-08T13:35:03;100513.78;;;18.68;100.00
65054;BME280;51639;47.828;35.038;2023-04-08T13:50:06;100501.72;;;18.56;100.00
65054;BME280;51639;47.828;35.038;2023-04-08T14:05:09;100495.28;;;18.68;100.00
65054;BME280;51639;47.828;35.038;2023-04-08T14:20:11;100487.63;;;18.72;100.00
65054;BME280;51639;47.828;35.038;2023-04-08T14:35:13;100505.41;;;18.44;100.00
65054;BME280;51639;47.828;35.038;2023-04-08T14:50:16;100488.41;;;18.03;100.00
65054;BME280;51639;47.828;35.038;2023-04-08T15:05:18;100489.34;;;17.82;100.00
65054;BME280;51639;47.828;35.038;2023-04-08T15:20:20;100498.97;;;17.87;100.00
65054;BME280;51639;47.828;35.038;2023-04-08T15:35:21;100497.50;;;17.18;100.00
65054;BME280;51639;47.828;35.038;2023-04-08T15:50:27;100491.81;;;17.03;100.00
65054;BME280;51639;47.828;35.038;2023-04-08T16:05:29;100559.78;;;16.68;100.00
65054;BME280;51639;47.828;35.038;2023-04-08T16:20:32;100606.75;;;16.01;100.00
65054;BME280;51639;47.828;35.038;2023-04-08T16:35:40;100640.25;;;14.79;100.00
65054;BME280;51639;47.828;35.038;2023-04-08T17:06:25;100681.53;;;13.58;100.00
65054;BME280;51639;47.828;35.038;2023-04-08T17:21:28;100676.59;;;13.53;100.00
65054;BME280;51639;47.828;35.038;2023-04-08T17:36:29;100676.13;;;13.22;100.00
65054;BME280;51639;47.828;35.038;2023-04-08T17:51:32;100700.72;;;13.18;100.00
65054;BME280;51639;47.828;35.038;2023-04-08T18:06:34;100710.56;;;13.68;100.00
65054;BME280;51639;47.828;35.038;2023-04-08T18:21:36;100718.03;;;13.64;100.00
65054;BME280;51639;47.828;35.038;2023-04-08T18:36:38;100715.66;;;13.66;100.00
65054;BME280;51639;47.828;35.038;2023-04-08T18:51:40;100728.13;;;13.67;100.00
65054;BME280;51639;47.828;35.038;2023-04-08T19:07:01;100719.66;;;13.61;100.00
65054;BME280;51639;47.828;35.038;2023-04-08T19:22:03;100700.78;;;13.51;100.00
65054;BME280;51639;47.828;35.038;2023-04-08T19:37:06;100688.31;;;13.34;100.00
65054;BME280;51639;47.828;35.038;2023-04-08T19:52:09;100679.63;;;13.22;100.00
65054;BME280;51639;47.828;35.038;2023-04-08T20:07:12;100663.56;;;13.24;100.00
65054;BME280;51639;47.828;35.038;2023-04-08T20:22:14;100645.13;;;13.12;100.00
65054;BME280;51639;47.828;35.038;2023-04-08T20:37:15;100649.13;;;13.08;100.00
65054;BME280;51639;47.828;35.038;2023-04-08T20:52:19;100639.06;;;13.05;100.00
65054;BME280;51639;47.828;35.038;2023-04-08T21:07:23;100646.75;;;13.10;100.00
65054;BME280;51639;47.828;35.038;2023-04-08T21:22:25;100648.28;;;13.11;100.00
65054;BME280;51639;47.828;35.038;2023-04-08T21:37:27;100662.47;;;13.02;100.00
65054;BME280;51639;47.828;35.038;2023-04-08T21:52:30;100658.78;;;12.92;100.00
65054;BME280;51639;47.828;35.038;2023-04-08T22:07:32;100674.50;;;12.85;100.00
65054;BME280;51639;47.828;35.038;2023-04-08T22:22:33;100676.69;;;12.74;100.00
65054;BME280;51639;47.828;35.038;2023-04-08T22:37:35;100674.09;;;12.67;100.00
65054;BME280;51639;47.828;35.038;2023-04-08T22:52:37;100671.72;;;12.69;100.00
65054;BME280;51639;47.828;35.038;2023-04-08T23:07:39;100681.63;;;12.79;100.00
65054;BME280;51639;47.828;35.038;2023-04-08T23:22:42;100680.44;;;12.80;100.00
65054;BME280;51639;47.828;35.038;2023-04-08T23:37:43;100686.44;;;12.51;100.00
65054;BME280;51639;47.828;35.038;2023-04-08T23:52:46;100684.41;;;12.55;100.00
